sensor_id;sensor_type;location;lat;lon;timestamp;temperature;humidity
4556;DHT22;2290;48.674;9.018;2022-08-18T00:00:30;20.20;99.90
4556;DHT22;2290;48.674;9.018;2022-08-18T00:03:04;20.10;99.90
4556;DHT22;2290;48.674;9.018;2022-08-18T00:05:30;20.60;99.90
4556;DHT22;2290;48.674;9.018;2022-08-18T00:07:57;19.80;99.90
4556;DHT22;2290;48.674;9.018;2022-08-18T00:10:22;19.80;99.90
4556;DHT22;2290;48.674;9.018;2022-08-18T00:12:48;20.00;99.90
4556;DHT22;2290;48.674;9.018;2022-08-18T00:15:16;19.80;99.90
4556;DHT22;2290;48.674;9.018;2022-08-18T00:17:42;19.80;99.90
4556;DHT22;2290;48.674;9.018;2022-08-18T00:20:15;19.70;99.90
4556;DHT22;2290;48.674;9.018;2022-08-18T00:22:41;19.80;99.90
4556;DHT22;2290;48.674;9.018;2022-08-18T00:25:09;19.70;99.90
4556;DHT22;2290;48.674;9.018;2022-08-18T00:27:36;19.80;99.90
4556;DHT22;2290;48.674;9.018;2022-08-18T00:30:05;19.80;99.90
4556;DHT22;2290;48.674;9.018;2022-08-18T00:32:35;19.80;99.90
4556;DHT22;2290;48.674;9.018;2022-08-18T00:35:08;19.80;99.90
4556;DHT22;2290;48.674;9.018;2022-08-18T00:37:34;19.80;99.90
4556;DHT22;2290;48.674;9.018;2022-08-18T00:40:02;19.80;99.90
4556;DHT22;2290;48.674;9.018;2022-08-18T00:42:29;19.90;99.90
4556;DHT22;2290;48.674;9.018;2022-08-18T00:45:02;19.90;99.90
4556;DHT22;2290;48.674;9.018;2022-08-18T00:47:29;19.90;99.90
4556;DHT22;2290;48.674;9.018;2022-08-18T00:49:55;20.60;99.90
4556;DHT22;2290;48.674;9.018;2022-08-18T00:52:22;19.80;99.90
4556;DHT22;2290;48.674;9.018;2022-08-18T00:54:51;20.30;99.90
4556;DHT22;2290;48.674;9.018;2022-08-18T00:57:18;19.70;99.90
4556;DHT22;2290;48.674;9.018;2022-08-18T00:59:50;19.70;99.90
4556;DHT22;2290;48.674;9.018;2022-08-18T01:02:27;19.60;99.90
4556;DHT22;2290;48.674;9.018;2022-08-18T01:05:02;19.70;99.90
4556;DHT22;2290;48.674;9.018;2022-08-18T01:07:35;19.90;99.90
4556;DHT22;2290;48.674;9.018;2022-08-18T01:10:02;19.80;99.90
4556;DHT22;2290;48.674;9.018;2022-08-18T01:12:30;19.70;99.90
4556;DHT22;2290;48.674;9.018;2022-08-18T01:14:56;19.80;99.90
4556;DHT22;2290;48.674;9.018;2022-08-18T01:17:24;19.80;99.90
4556;DHT22;2290;48.674;9.018;2022-08-18T01:20:16;19.80;99.90
4556;DHT22;2290;48.674;9.018;2022-08-18T01:23:11;20.00;99.90
4556;DHT22;2290;48.674;9.018;2022-08-18T01:25:37;19.70;99.90
4556;DHT22;2290;48.674;9.018;2022-08-18T01:28:24;19.80;99.90
4556;DHT22;2290;48.674;9.018;2022-08-18T01:30:53;19.70;99.90
4556;DHT22;2290;48.674;9.018;2022-08-18T01:33:28;19.70;99.90
4556;DHT22;2290;48.674;9.018;2022-08-18T01:36:00;19.70;99.90
4556;DHT22;2290;48.674;9.018;2022-08-18T01:38:28;19.70;99.90
4556;DHT22;2290;48.674;9.018;2022-08-18T01:40:56;19.70;99.90
4556;DHT22;2290;48.674;9.018;2022-08-18T01:43:22;19.80;99.90
4556;DHT22;2290;48.674;9.018;2022-08-18T01:45:49;19.70;99.90
4556;DHT22;2290;48.674;9.018;2022-08-18T01:48:15;19.60;99.90
4556;DHT22;2290;48.674;9.018;2022-08-18T01:50:41;19.60;99.90
4556;DHT22;2290;48.674;9.018;2022-08-18T01:53:08;20.00;99.90
4556;DHT22;2290;48.674;9.018;2022-08-18T01:55:37;19.60;99.90
4556;DHT22;2290;48.674;9.018;2022-08-18T01:58:05;19.60;99.90
4556;DHT22;2290;48.674;9.018;2022-08-18T02:00:32;19.60;99.90
4556;DHT22;2290;48.674;9.018;2022-08-18T02:03:00;19.80;99.90
4556;DHT22;2290;48.674;9.018;2022-08-18T02:05:41;19.60;99.90
4556;DHT22;2290;48.674;9.018;2022-08-18T02:08:07;19.50;99.90
4556;DHT22;2290;48.674;9.018;2022-08-18T02:10:33;19.50;99.90
4556;DHT22;2290;48.674;9.018;2022-08-18T02:12:59;19.50;99.90
4556;DHT22;2290;48.674;9.018;2022-08-18T02:15:25;19.50;99.90
4556;DHT22;2290;48.674;9.018;2022-08-18T02:17:51;19.50;99.90
4556;DHT22;2290;48.674;9.018;2022-08-18T02:20:18;19.40;99.90
4556;DHT22;2290;48.674;9.018;2022-08-18T02:22:44;19.40;99.90
4556;DHT22;2290;48.674;9.018;2022-08-18T02:25:11;19.40;99.90
4556;DHT22;2290;48.674;9.018;2022-08-18T02:27:37;19.40;99.90
4556;DHT22;2290;48.674;9.018;2022-08-18T02:30:07;19.70;99.90
4556;DHT22;2290;48.674;9.018;2022-08-18T02:32:33;19.40;99.90
4556;DHT22;2290;48.674;9.018;2022-08-18T02:34:59;19.30;99.90
4556;DHT22;2290;48.674;9.018;2022-08-18T02:37:24;19.40;99.90
4556;DHT22;2290;48.674;9.018;2022-08-18T02:39:50;19.30;99.90
4556;DHT22;2290;48.674;9.018;2022-08-18T02:42:17;19.30;99.90
4556;DHT22;2290;48.674;9.018;2022-08-18T02:44:44;19.30;99.90
4556;DHT22;2290;48.674;9.018;2022-08-18T02:47:11;19.50;99.90
4556;DHT22;2290;48.674;9.018;2022-08-18T02:49:37;19.40;99.90
4556;DHT22;2290;48.674;9.018;2022-08-18T02:52:03;19.30;99.90
4556;DHT22;2290;48.674;9.018;2022-08-18T02:54:30;19.30;99.90
4556;DHT22;2290;48.674;9.018;2022-08-18T02:56:56;19.50;99.90
4556;DHT22;2290;48.674;9.018;2022-08-18T02:59:25;19.30;99.90
4556;DHT22;2290;48.674;9.018;2022-08-18T03:01:54;19.30;99.90
4556;DHT22;2290;48.674;9.018;2022-08-18T03:04:24;19.20;99.90
4556;DHT22;2290;48.674;9.018;2022-08-18T03:06:54;19.30;99.90
4556;DHT22;2290;48.674;9.018;2022-08-18T03:09:21;19.20;99.90
4556;DHT22;2290;48.674;9.018;2022-08-18T03:11:47;19.20;99.90
4556;DHT22;2290;48.674;9.018;2022-08-18T03:14:14;19.20;99.90
4556;DHT22;2290;48.674;9.018;2022-08-18T03:16:44;19.20;99.90
4556;DHT22;2290;48.674;9.018;2022-08-18T03:19:10;19.20;99.90
4556;DHT22;2290;48.674;9.018;2022-08-18T03:21:39;19.30;99.90
4556;DHT22;2290;48.674;9.018;2022-08-18T03:24:04;19.20;99.90
4556;DHT22;2290;48.674;9.018;2022-08-18T03:26:31;19.20;99.90
4556;DHT22;2290;48.674;9.018;2022-08-18T03:28:58;19.20;99.90
4556;DHT22;2290;48.674;9.018;2022-08-18T03:31:26;19.00;99.90
4556;DHT22;2290;48.674;9.018;2022-08-18T03:33:54;19.00;99.90
4556;DHT22;2290;48.674;9.018;2022-08-18T03:36:22;19.00;99.90
4556;DHT22;2290;48.674;9.018;2022-08-18T03:38:50;19.00;99.90
4556;DHT22;2290;48.674;9.018;2022-08-18T03:41:18;19.10;99.90
4556;DHT22;2290;48.674;9.018;2022-08-18T03:43:44;19.20;99.90
4556;DHT22;2290;48.674;9.018;2022-08-18T03:46:12;19.70;99.90
4556;DHT22;2290;48.674;9.018;2022-08-18T03:48:40;19.10;99.90
4556;DHT22;2290;48.674;9.018;2022-08-18T03:51:14;19.20;99.90
4556;DHT22;2290;48.674;9.018;2022-08-18T03:53:41;19.70;99.90
4556;DHT22;2290;48.674;9.018;2022-08-18T03:56:09;19.20;99.90
4556;DHT22;2290;48.674;9.018;2022-08-18T03:59:24;19.30;99.90
4556;DHT22;2290;48.674;9.018;2022-08-18T04:01:31;19.30;99.90
4556;DHT22;2290;48.674;9.018;2022-08-18T04:04:01;19.20;99.90
4556;DHT22;2290;48.674;9.018;2022-08-18T04:06:31;19.30;99.90
4556;DHT22;2290;48.674;9.018;2022-08-18T04:08:59;19.30;99.90
4556;DHT22;2290;48.674;9.018;2022-08-18T04:11:25;19.30;99.90
4556;DHT22;2290;48.674;9.018;2022-08-18T04:13:54;19.30;99.90
4556;DHT22;2290;48.674;9.018;2022-08-18T04:16:24;19.40;99.90
4556;DHT22;2290;48.674;9.018;2022-08-18T04:18:50;19.40;99.90
4556;DHT22;2290;48.674;9.018;2022-08-18T04:21:16;19.50;99.90
4556;DHT22;2290;48.674;9.018;2022-08-18T04:23:41;19.60;99.90
4556;DHT22;2290;48.674;9.018;2022-08-18T04:26:08;19.50;99.90
4556;DHT22;2290;48.674;9.018;2022-08-18T04:28:34;19.60;99.90
4556;DHT22;2290;48.674;9.018;2022-08-18T04:31:06;19.50;99.90
4556;DHT22;2290;48.674;9.018;2022-08-18T04:33:32;19.40;99.90
4556;DHT22;2290;48.674;9.018;2022-08-18T04:35:58;19.50;99.90
4556;DHT22;2290;48.674;9.018;2022-08-18T04:38:27;19.50;99.90
4556;DHT22;2290;48.674;9.018;2022-08-18T04:40:53;19.50;99.90
4556;DHT22;2290;48.674;9.018;2022-08-18T04:43:18;19.50;99.90
4556;DHT22;2290;48.674;9.018;2022-08-18T04:45:44;19.40;99.90
4556;DHT22;2290;48.674;9.018;2022-08-18T04:48:11;19.40;99.90
4556;DHT22;2290;48.674;9.018;2022-08-18T04:50:37;19.40;99.90
4556;DHT22;2290;48.674;9.018;2022-08-18T04:53:03;19.50;99.90
4556;DHT22;2290;48.674;9.018;2022-08-18T04:55:49;19.40;99.90
4556;DHT22;2290;48.674;9.018;2022-08-18T04:58:20;19.40;99.90
4556;DHT22;2290;48.674;9.018;2022-08-18T05:00:47;19.40;99.90
4556;DHT22;2290;48.674;9.018;2022-08-18T05:03:20;19.50;99.90
4556;DHT22;2290;48.674;9.018;2022-08-18T05:05:56;19.80;99.90
4556;DHT22;2290;48.674;9.018;2022-08-18T05:08:23;19.50;99.90
4556;DHT22;2290;48.674;9.018;2022-08-18T05:10:56;19.50;99.90
4556;DHT22;2290;48.674;9.018;2022-08-18T05:13:22;19.40;99.90
4556;DHT22;2290;48.674;9.018;2022-08-18T05:15:55;19.40;99.90
4556;DHT22;2290;48.674;9.018;2022-08-18T05:18:23;19.80;99.90
4556;DHT22;2290;48.674;9.018;2022-08-18T05:20:53;19.50;99.90
4556;DHT22;2290;48.674;9.018;2022-08-18T05:23:20;19.50;99.90
4556;DHT22;2290;48.674;9.018;2022-08-18T05:25:46;19.50;99.90
4556;DHT22;2290;48.674;9.018;2022-08-18T05:28:12;19.60;99.90
4556;DHT22;2290;48.674;9.018;2022-08-18T05:30:39;19.60;99.90
4556;DHT22;2290;48.674;9.018;2022-08-18T05:33:07;19.50;99.90
4556;DHT22;2290;48.674;9.018;2022-08-18T05:35:42;19.60;99.90
4556;DHT22;2290;48.674;9.018;2022-08-18T05:41:09;19.60;99.90
4556;DHT22;2290;48.674;9.018;2022-08-18T05:43:37;19.80;99.90
4556;DHT22;2290;48.674;9.018;2022-08-18T05:46:05;19.70;99.90
4556;DHT22;2290;48.674;9.018;2022-08-18T05:48:33;19.70;99.90
4556;DHT22;2290;48.674;9.018;2022-08-18T05:51:14;19.70;99.90
4556;DHT22;2290;48.674;9.018;2022-08-18T05:53:42;19.70;99.90
4556;DHT22;2290;48.674;9.018;2022-08-18T05:56:33;19.80;99.90
4556;DHT22;2290;48.674;9.018;2022-08-18T06:01:57;19.80;99.90
4556;DHT22;2290;48.674;9.018;2022-08-18T06:06:51;19.80;99.90
4556;DHT22;2290;48.674;9.018;2022-08-18T06:09:25;19.60;99.90
4556;DHT22;2290;48.674;9.018;2022-08-18T06:12:00;19.70;99.90
4556;DHT22;2290;48.674;9.018;2022-08-18T06:14:29;19.70;99.90
4556;DHT22;2290;48.674;9.018;2022-08-18T06:41:17;20.40;99.90
4556;DHT22;2290;48.674;9.018;2022-08-18T06:47:01;20.40;99.90
4556;DHT22;2290;48.674;9.018;2022-08-18T06:54:47;20.70;99.90
4556;DHT22;2290;48.674;9.018;2022-08-18T07:00:19;20.90;99.90
4556;DHT22;2290;48.674;9.018;2022-08-18T07:03:04;20.80;99.90
4556;DHT22;2290;48.674;9.018;2022-08-18T07:05:33;21.00;99.90
4556;DHT22;2290;48.674;9.018;2022-08-18T07:08:14;21.00;99.90
4556;DHT22;2290;48.674;9.018;2022-08-18T07:10:46;21.10;99.90
4556;DHT22;2290;48.674;9.018;2022-08-18T07:13:18;21.00;99.90
4556;DHT22;2290;48.674;9.018;2022-08-18T07:15:44;21.00;99.90
4556;DHT22;2290;48.674;9.018;2022-08-18T07:18:14;21.00;99.90
4556;DHT22;2290;48.674;9.018;2022-08-18T07:20:50;20.80;99.90
4556;DHT22;2290;48.674;9.018;2022-08-18T07:23:37;20.80;99.90
4556;DHT22;2290;48.674;9.018;2022-08-18T07:26:07;20.80;99.90
4556;DHT22;2290;48.674;9.018;2022-08-18T07:28:40;20.80;99.90
4556;DHT22;2290;48.674;9.018;2022-08-18T07:31:13;20.80;99.90
4556;DHT22;2290;48.674;9.018;2022-08-18T07:33:47;20.80;99.90
4556;DHT22;2290;48.674;9.018;2022-08-18T07:36:15;20.80;99.90
4556;DHT22;2290;48.674;9.018;2022-08-18T07:38:49;20.70;99.90
4556;DHT22;2290;48.674;9.018;2022-08-18T07:41:43;20.70;99.90
4556;DHT22;2290;48.674;9.018;2022-08-18T07:44:38;20.70;99.90
4556;DHT22;2290;48.674;9.018;2022-08-18T07:47:13;20.70;99.90
4556;DHT22;2290;48.674;9.018;2022-08-18T07:49:41;20.80;99.90
4556;DHT22;2290;48.674;9.018;2022-08-18T07:52:21;20.70;99.90
4556;DHT22;2290;48.674;9.018;2022-08-18T07:57:39;20.60;99.90
4556;DHT22;2290;48.674;9.018;2022-08-18T08:00:22;20.50;99.90
4556;DHT22;2290;48.674;9.018;2022-08-18T08:05:50;20.60;99.90
4556;DHT22;2290;48.674;9.018;2022-08-18T08:08:29;20.70;99.90
4556;DHT22;2290;48.674;9.018;2022-08-18T08:11:03;20.80;99.90
4556;DHT22;2290;48.674;9.018;2022-08-18T08:13:54;20.90;99.90
4556;DHT22;2290;48.674;9.018;2022-08-18T08:16:42;21.00;99.90
4556;DHT22;2290;48.674;9.018;2022-08-18T08:30:03;21.60;99.90
4556;DHT22;2290;48.674;9.018;2022-08-18T08:32:33;21.80;99.90
4556;DHT22;2290;48.674;9.018;2022-08-18T08:35:40;21.90;99.90
4556;DHT22;2290;48.674;9.018;2022-08-18T08:38:14;22.00;99.90
4556;DHT22;2290;48.674;9.018;2022-08-18T08:41:01;22.10;99.90
4556;DHT22;2290;48.674;9.018;2022-08-18T08:43:39;22.30;99.90
4556;DHT22;2290;48.674;9.018;2022-08-18T08:46:14;22.20;99.90
4556;DHT22;2290;48.674;9.018;2022-08-18T08:49:00;22.10;99.90
4556;DHT22;2290;48.674;9.018;2022-08-18T08:51:46;22.10;99.90
4556;DHT22;2290;48.674;9.018;2022-08-18T08:54:20;22.20;99.90
4556;DHT22;2290;48.674;9.018;2022-08-18T08:56:49;22.30;99.90
4556;DHT22;2290;48.674;9.018;2022-08-18T08:59:18;22.50;99.90
4556;DHT22;2290;48.674;9.018;2022-08-18T09:15:26;23.10;99.90
4556;DHT22;2290;48.674;9.018;2022-08-18T09:20:47;23.00;99.90
4556;DHT22;2290;48.674;9.018;2022-08-18T09:23:24;23.00;99.90
4556;DHT22;2290;48.674;9.018;2022-08-18T09:25:56;23.10;99.90
4556;DHT22;2290;48.674;9.018;2022-08-18T09:37:09;23.90;99.90
4556;DHT22;2290;48.674;9.018;2022-08-18T09:39:40;24.10;99.90
4556;DHT22;2290;48.674;9.018;2022-08-18T09:42:50;24.20;99.90
4556;DHT22;2290;48.674;9.018;2022-08-18T09:48:40;24.30;99.90
4556;DHT22;2290;48.674;9.018;2022-08-18T09:56:14;24.20;99.90
4556;DHT22;2290;48.674;9.018;2022-08-18T10:06:40;24.00;99.90
4556;DHT22;2290;48.674;9.018;2022-08-18T10:15:19;24.40;99.90
4556;DHT22;2290;48.674;9.018;2022-08-18T10:23:43;24.60;99.90
4556;DHT22;2290;48.674;9.018;2022-08-18T10:29:03;24.60;99.90
4556;DHT22;2290;48.674;9.018;2022-08-18T10:42:52;24.90;99.90
4556;DHT22;2290;48.674;9.018;2022-08-18T10:48:07;24.90;99.90
4556;DHT22;2290;48.674;9.018;2022-08-18T10:50:43;24.90;99.90
4556;DHT22;2290;48.674;9.018;2022-08-18T10:53:38;24.80;99.90
4556;DHT22;2290;48.674;9.018;2022-08-18T10:56:32;24.80;99.90
4556;DHT22;2290;48.674;9.018;2022-08-18T11:02:08;24.60;99.90
4556;DHT22;2290;48.674;9.018;2022-08-18T11:04:41;24.50;99.90
4556;DHT22;2290;48.674;9.018;2022-08-18T11:07:15;24.40;99.90
4556;DHT22;2290;48.674;9.018;2022-08-18T11:09:44;24.30;99.90
4556;DHT22;2290;48.674;9.018;2022-08-18T11:12:12;24.20;99.90
4556;DHT22;2290;48.674;9.018;2022-08-18T11:14:55;24.20;99.90
4556;DHT22;2290;48.674;9.018;2022-08-18T11:20:16;24.20;99.90
4556;DHT22;2290;48.674;9.018;2022-08-18T11:22:55;24.10;99.90
4556;DHT22;2290;48.674;9.018;2022-08-18T11:25:29;24.20;99.90
4556;DHT22;2290;48.674;9.018;2022-08-18T11:27:56;24.20;99.90
4556;DHT22;2290;48.674;9.018;2022-08-18T11:30:29;24.10;99.90
4556;DHT22;2290;48.674;9.018;2022-08-18T11:32:56;24.00;99.90
4556;DHT22;2290;48.674;9.018;2022-08-18T11:35:49;24.00;99.90
4556;DHT22;2290;48.674;9.018;2022-08-18T11:38:17;24.10;99.90
4556;DHT22;2290;48.674;9.018;2022-08-18T11:40:48;24.20;99.90
4556;DHT22;2290;48.674;9.018;2022-08-18T11:43:19;24.30;99.90
4556;DHT22;2290;48.674;9.018;2022-08-18T11:46:00;24.40;99.90
4556;DHT22;2290;48.674;9.018;2022-08-18T11:48:42;24.50;99.90
4556;DHT22;2290;48.674;9.018;2022-08-18T11:51:19;24.50;99.90
4556;DHT22;2290;48.674;9.018;2022-08-18T11:58:59;24.40;99.90
4556;DHT22;2290;48.674;9.018;2022-08-18T12:04:37;24.30;99.90
4556;DHT22;2290;48.674;9.018;2022-08-18T12:07:15;24.50;99.90
4556;DHT22;2290;48.674;9.018;2022-08-18T12:12:30;24.60;99.90
4556;DHT22;2290;48.674;9.018;2022-08-18T12:15:22;24.70;99.90
4556;DHT22;2290;48.674;9.018;2022-08-18T12:17:48;24.70;99.90
4556;DHT22;2290;48.674;9.018;2022-08-18T12:20:15;24.70;99.90
4556;DHT22;2290;48.674;9.018;2022-08-18T12:22:42;24.70;99.90
4556;DHT22;2290;48.674;9.018;2022-08-18T12:25:12;24.80;99.90
4556;DHT22;2290;48.674;9.018;2022-08-18T12:27:40;25.00;99.90
4556;DHT22;2290;48.674;9.018;2022-08-18T12:30:07;25.30;99.90
4556;DHT22;2290;48.674;9.018;2022-08-18T12:32:34;25.50;99.90
4556;DHT22;2290;48.674;9.018;2022-08-18T12:35:00;25.70;99.90
4556;DHT22;2290;48.674;9.018;2022-08-18T12:37:28;25.70;99.90
4556;DHT22;2290;48.674;9.018;2022-08-18T12:39:55;25.80;99.90
4556;DHT22;2290;48.674;9.018;2022-08-18T12:42:21;26.00;99.90
4556;DHT22;2290;48.674;9.018;2022-08-18T12:44:47;26.30;99.90
4556;DHT22;2290;48.674;9.018;2022-08-18T12:47:19;26.60;99.90
4556;DHT22;2290;48.674;9.018;2022-08-18T12:49:46;26.90;99.90
4556;DHT22;2290;48.674;9.018;2022-08-18T12:52:12;27.20;99.90
4556;DHT22;2290;48.674;9.018;2022-08-18T12:54:38;27.40;99.90
4556;DHT22;2290;48.674;9.018;2022-08-18T12:57:07;27.50;99.90
4556;DHT22;2290;48.674;9.018;2022-08-18T12:59:34;27.80;99.90
4556;DHT22;2290;48.674;9.018;2022-08-18T13:02:02;27.90;99.90
4556;DHT22;2290;48.674;9.018;2022-08-18T13:04:28;28.10;99.90
4556;DHT22;2290;48.674;9.018;2022-08-18T13:06:56;28.30;99.90
4556;DHT22;2290;48.674;9.018;2022-08-18T13:09:22;28.40;99.90
4556;DHT22;2290;48.674;9.018;2022-08-18T13:11:48;28.30;99.90
4556;DHT22;2290;48.674;9.018;2022-08-18T13:14:15;28.40;99.90
4556;DHT22;2290;48.674;9.018;2022-08-18T13:16:42;28.40;99.90
4556;DHT22;2290;48.674;9.018;2022-08-18T13:19:09;28.40;99.90
4556;DHT22;2290;48.674;9.018;2022-08-18T13:21:35;28.60;99.90
4556;DHT22;2290;48.674;9.018;2022-08-18T13:24:01;28.80;99.90
4556;DHT22;2290;48.674;9.018;2022-08-18T13:26:31;28.60;99.50
4556;DHT22;2290;48.674;9.018;2022-08-18T13:28:57;28.40;99.40
4556;DHT22;2290;48.674;9.018;2022-08-18T13:31:25;28.20;99.50
4556;DHT22;2290;48.674;9.018;2022-08-18T13:33:51;28.20;99.00
4556;DHT22;2290;48.674;9.018;2022-08-18T13:36:17;28.40;99.00
4556;DHT22;2290;48.674;9.018;2022-08-18T13:38:43;28.50;99.30
4556;DHT22;2290;48.674;9.018;2022-08-18T13:41:09;28.50;99.40
4556;DHT22;2290;48.674;9.018;2022-08-18T13:43:38;28.50;99.70
4556;DHT22;2290;48.674;9.018;2022-08-18T13:46:10;28.50;99.40
4556;DHT22;2290;48.674;9.018;2022-08-18T13:48:37;28.30;99.30
4556;DHT22;2290;48.674;9.018;2022-08-18T13:51:05;28.30;99.00
4556;DHT22;2290;48.674;9.018;2022-08-18T13:53:32;28.40;99.10
4556;DHT22;2290;48.674;9.018;2022-08-18T13:55:58;28.50;98.90
4556;DHT22;2290;48.674;9.018;2022-08-18T13:58:25;28.40;98.50
4556;DHT22;2290;48.674;9.018;2022-08-18T14:00:55;28.30;98.70
4556;DHT22;2290;48.674;9.018;2022-08-18T14:03:22;28.30;98.90
4556;DHT22;2290;48.674;9.018;2022-08-18T14:05:51;28.10;99.40
4556;DHT22;2290;48.674;9.018;2022-08-18T14:08:19;28.00;99.20
4556;DHT22;2290;48.674;9.018;2022-08-18T14:10:48;27.80;99.30
4556;DHT22;2290;48.674;9.018;2022-08-18T14:13:16;27.50;99.60
4556;DHT22;2290;48.674;9.018;2022-08-18T14:15:42;27.30;99.60
4556;DHT22;2290;48.674;9.018;2022-08-18T14:18:09;27.30;99.80
4556;DHT22;2290;48.674;9.018;2022-08-18T14:20:35;27.30;99.90
4556;DHT22;2290;48.674;9.018;2022-08-18T14:23:19;27.10;99.90
4556;DHT22;2290;48.674;9.018;2022-08-18T14:26:04;27.10;99.90
4556;DHT22;2290;48.674;9.018;2022-08-18T14:28:48;27.00;99.90
4556;DHT22;2290;48.674;9.018;2022-08-18T14:31:14;26.80;99.90
4556;DHT22;2290;48.674;9.018;2022-08-18T14:33:40;26.70;99.90
4556;DHT22;2290;48.674;9.018;2022-08-18T14:36:07;26.60;99.90
4556;DHT22;2290;48.674;9.018;2022-08-18T14:38:33;26.60;99.90
4556;DHT22;2290;48.674;9.018;2022-08-18T14:41:01;26.60;99.90
4556;DHT22;2290;48.674;9.018;2022-08-18T14:43:28;26.50;99.90
4556;DHT22;2290;48.674;9.018;2022-08-18T14:45:54;26.30;99.90
4556;DHT22;2290;48.674;9.018;2022-08-18T14:48:20;26.20;99.90
4556;DHT22;2290;48.674;9.018;2022-08-18T14:50:49;26.10;99.90
4556;DHT22;2290;48.674;9.018;2022-08-18T14:53:20;26.00;99.90
4556;DHT22;2290;48.674;9.018;2022-08-18T14:55:48;25.90;99.90
4556;DHT22;2290;48.674;9.018;2022-08-18T14:58:17;25.80;99.90
4556;DHT22;2290;48.674;9.018;2022-08-18T15:00:43;25.70;99.90
4556;DHT22;2290;48.674;9.018;2022-08-18T15:03:09;25.60;99.90
4556;DHT22;2290;48.674;9.018;2022-08-18T15:05:35;25.50;99.90
4556;DHT22;2290;48.674;9.018;2022-08-18T15:08:02;25.60;99.90
4556;DHT22;2290;48.674;9.018;2022-08-18T15:10:31;25.60;99.90
4556;DHT22;2290;48.674;9.018;2022-08-18T15:12:57;25.60;99.90
4556;DHT22;2290;48.674;9.018;2022-08-18T15:15:25;25.60;99.90
4556;DHT22;2290;48.674;9.018;2022-08-18T15:17:51;25.60;99.90
4556;DHT22;2290;48.674;9.018;2022-08-18T15:20:16;25.70;99.90
4556;DHT22;2290;48.674;9.018;2022-08-18T15:22:44;25.70;99.90
4556;DHT22;2290;48.674;9.018;2022-08-18T15:25:29;25.70;99.90
4556;DHT22;2290;48.674;9.018;2022-08-18T15:28:01;25.70;99.90
4556;DHT22;2290;48.674;9.018;2022-08-18T15:30:27;25.50;99.90
4556;DHT22;2290;48.674;9.018;2022-08-18T15:32:53;25.60;99.90
4556;DHT22;2290;48.674;9.018;2022-08-18T15:35:19;25.60;99.90
4556;DHT22;2290;48.674;9.018;2022-08-18T15:37:46;25.50;99.90
4556;DHT22;2290;48.674;9.018;2022-08-18T15:40:17;25.50;99.90
4556;DHT22;2290;48.674;9.018;2022-08-18T15:42:50;25.50;99.90
4556;DHT22;2290;48.674;9.018;2022-08-18T15:45:24;25.50;99.90
4556;DHT22;2290;48.674;9.018;2022-08-18T15:47:53;25.50;99.90
4556;DHT22;2290;48.674;9.018;2022-08-18T15:50:19;25.50;99.90
4556;DHT22;2290;48.674;9.018;2022-08-18T15:55:16;25.50;99.90
4556;DHT22;2290;48.674;9.018;2022-08-18T15:57:42;25.50;99.90
4556;DHT22;2290;48.674;9.018;2022-08-18T16:00:10;25.50;99.90
4556;DHT22;2290;48.674;9.018;2022-08-18T16:02:37;25.60;99.90
4556;DHT22;2290;48.674;9.018;2022-08-18T16:05:05;25.60;99.90
4556;DHT22;2290;48.674;9.018;2022-08-18T16:07:31;25.60;99.90
4556;DHT22;2290;48.674;9.018;2022-08-18T16:09:57;25.60;99.90
4556;DHT22;2290;48.674;9.018;2022-08-18T16:12:22;25.60;99.90
4556;DHT22;2290;48.674;9.018;2022-08-18T16:14:48;25.60;99.90
4556;DHT22;2290;48.674;9.018;2022-08-18T16:17:17;25.50;99.90
4556;DHT22;2290;48.674;9.018;2022-08-18T16:19:43;25.50;99.90
4556;DHT22;2290;48.674;9.018;2022-08-18T16:22:09;25.40;99.90
4556;DHT22;2290;48.674;9.018;2022-08-18T16:24:34;25.30;99.90
4556;DHT22;2290;48.674;9.018;2022-08-18T16:27:00;25.30;99.90
4556;DHT22;2290;48.674;9.018;2022-08-18T16:29:25;25.30;99.90
4556;DHT22;2290;48.674;9.018;2022-08-18T16:31:51;25.30;99.90
4556;DHT22;2290;48.674;9.018;2022-08-18T16:34:17;25.30;99.90
4556;DHT22;2290;48.674;9.018;2022-08-18T16:36:42;25.30;99.90
4556;DHT22;2290;48.674;9.018;2022-08-18T16:39:08;25.30;99.90
4556;DHT22;2290;48.674;9.018;2022-08-18T16:41:33;25.30;99.90
4556;DHT22;2290;48.674;9.018;2022-08-18T16:44:00;25.20;99.90
4556;DHT22;2290;48.674;9.018;2022-08-18T16:46:26;25.10;99.90
4556;DHT22;2290;48.674;9.018;2022-08-18T16:48:54;25.00;99.90
4556;DHT22;2290;48.674;9.018;2022-08-18T16:51:22;25.00;99.90
4556;DHT22;2290;48.674;9.018;2022-08-18T16:53:49;24.90;99.90
4556;DHT22;2290;48.674;9.018;2022-08-18T16:56:18;24.70;99.90
4556;DHT22;2290;48.674;9.018;2022-08-18T16:58:44;24.60;99.90
4556;DHT22;2290;48.674;9.018;2022-08-18T17:01:29;24.60;99.90
4556;DHT22;2290;48.674;9.018;2022-08-18T17:04:15;24.60;99.90
4556;DHT22;2290;48.674;9.018;2022-08-18T17:06:42;24.50;99.90
4556;DHT22;2290;48.674;9.018;2022-08-18T17:09:08;24.40;99.90
4556;DHT22;2290;48.674;9.018;2022-08-18T17:11:35;24.20;99.90
4556;DHT22;2290;48.674;9.018;2022-08-18T17:14:01;24.00;99.90
4556;DHT22;2290;48.674;9.018;2022-08-18T17:16:28;23.90;99.90
4556;DHT22;2290;48.674;9.018;2022-08-18T17:18:54;23.80;99.90
4556;DHT22;2290;48.674;9.018;2022-08-18T17:21:24;23.80;99.90
4556;DHT22;2290;48.674;9.018;2022-08-18T17:23:52;23.70;99.90
4556;DHT22;2290;48.674;9.018;2022-08-18T17:26:47;23.60;99.90
4556;DHT22;2290;48.674;9.018;2022-08-18T17:29:19;23.60;99.90
4556;DHT22;2290;48.674;9.018;2022-08-18T17:32:00;23.40;99.90
4556;DHT22;2290;48.674;9.018;2022-08-18T17:34:34;23.30;99.90
4556;DHT22;2290;48.674;9.018;2022-08-18T17:37:01;23.30;99.90
4556;DHT22;2290;48.674;9.018;2022-08-18T17:39:35;23.30;99.90
4556;DHT22;2290;48.674;9.018;2022-08-18T17:42:03;23.20;99.90
4556;DHT22;2290;48.674;9.018;2022-08-18T17:44:47;23.20;99.90
4556;DHT22;2290;48.674;9.018;2022-08-18T17:50:00;23.10;99.90
4556;DHT22;2290;48.674;9.018;2022-08-18T17:52:50;23.20;99.90
4556;DHT22;2290;48.674;9.018;2022-08-18T17:55:24;23.20;99.90
4556;DHT22;2290;48.674;9.018;2022-08-18T17:57:57;23.10;99.90
4556;DHT22;2290;48.674;9.018;2022-08-18T18:00:26;23.10;99.90
4556;DHT22;2290;48.674;9.018;2022-08-18T18:02:53;23.20;99.90
4556;DHT22;2290;48.674;9.018;2022-08-18T18:05:20;23.00;99.90
4556;DHT22;2290;48.674;9.018;2022-08-18T18:10:38;22.90;99.90
4556;DHT22;2290;48.674;9.018;2022-08-18T18:13:30;22.80;99.90
4556;DHT22;2290;48.674;9.018;2022-08-18T18:16:30;22.70;99.90
4556;DHT22;2290;48.674;9.018;2022-08-18T18:19:02;22.60;99.90
4556;DHT22;2290;48.674;9.018;2022-08-18T18:21:33;22.60;99.90
4556;DHT22;2290;48.674;9.018;2022-08-18T18:26:34;22.50;99.90
4556;DHT22;2290;48.674;9.018;2022-08-18T18:29:30;22.40;99.90
4556;DHT22;2290;48.674;9.018;2022-08-18T18:32:00;22.40;99.90
4556;DHT22;2290;48.674;9.018;2022-08-18T18:34:36;22.40;99.90
4556;DHT22;2290;48.674;9.018;2022-08-18T18:37:23;22.30;99.90
4556;DHT22;2290;48.674;9.018;2022-08-18T18:40:00;22.40;99.90
4556;DHT22;2290;48.674;9.018;2022-08-18T18:42:29;22.30;99.90
4556;DHT22;2290;48.674;9.018;2022-08-18T18:44:57;22.20;99.90
4556;DHT22;2290;48.674;9.018;2022-08-18T18:53:06;22.20;99.90
4556;DHT22;2290;48.674;9.018;2022-08-18T18:55:41;22.20;99.90
4556;DHT22;2290;48.674;9.018;2022-08-18T19:00:58;22.20;99.90
4556;DHT22;2290;48.674;9.018;2022-08-18T19:03:36;22.20;99.90
4556;DHT22;2290;48.674;9.018;2022-08-18T19:06:11;22.10;99.90
4556;DHT22;2290;48.674;9.018;2022-08-18T19:11:41;22.10;99.90
4556;DHT22;2290;48.674;9.018;2022-08-18T19:14:15;22.00;99.90